createdAt,value
2018-01-15T00:00:44.947Z,-0.57
2018-01-15T00:01:49.673Z,0.75
2018-01-15T00:02:54.370Z,-1.34
2018-01-15T00:03:59.041Z,-0.96
2018-01-15T00:05:04.317Z,0.72
2018-01-15T00:06:09.065Z,0.97
2018-01-15T00:07:13.812Z,0.96
2018-01-15T00:08:18.611Z,-1.46
2018-01-15T00:09:23.457Z,0.82
2018-01-15T00:10:28.573Z,0.69
2018-01-15T00:11:33.398Z,-1.20
2018-01-15T00:12:38.047Z,0.79
2018-01-15T00:13:42.804Z,-0.07
2018-01-15T00:14:47.567Z,0.78
2018-01-15T00:15:52.317Z,0.90
2018-01-15T00:16:57.466Z,0.64
2018-01-15T00:18:02.153Z,0.06
2018-01-15T00:19:06.952Z,0.79
2018-01-15T00:20:11.745Z,-1.20
2018-01-15T00:21:16.325Z,0.73
2018-01-15T00:22:20.989Z,-0.29
2018-01-15T00:23:26.195Z,0.86
2018-01-15T00:24:30.948Z,-1.25
2018-01-15T00:25:35.651Z,0.81
2018-01-15T00:26:40.382Z,0.73
2018-01-15T00:27:45.119Z,-0.23
2018-01-15T00:28:49.820Z,0.76
2018-01-15T00:29:54.903Z,0.63
2018-01-15T00:30:59.627Z,0.88
2018-01-15T00:32:04.372Z,-0.48
2018-01-15T00:33:09.054Z,-0.07
2018-01-15T00:34:13.810Z,0.57
2018-01-15T00:35:18.465Z,0.74
2018-01-15T00:36:23.546Z,-1.52
2018-01-15T00:37:28.234Z,0.76
2018-01-15T00:38:32.979Z,0.62
2018-01-15T00:39:37.597Z,0.59
2018-01-15T00:40:42.391Z,0.86
2018-01-15T00:41:47.133Z,0.66
2018-01-15T00:42:52.379Z,0.62
2018-01-15T00:43:57.138Z,0.70
2018-01-15T00:45:01.883Z,0.71
2018-01-15T00:46:06.579Z,0.57
2018-01-15T00:47:11.249Z,0.97
2018-01-15T00:48:15.918Z,1.00
2018-01-15T00:49:21.150Z,-0.13
2018-01-15T00:50:25.742Z,0.74
2018-01-15T00:51:30.526Z,-0.26
2018-01-15T00:52:35.240Z,0.85
2018-01-15T00:53:39.971Z,1.15
2018-01-15T00:54:44.714Z,1.31
2018-01-15T00:55:49.733Z,1.50
2018-01-15T00:56:54.479Z,1.00
2018-01-15T00:57:59.184Z,1.56
2018-01-15T00:59:03.927Z,1.67
2018-01-15T01:00:08.663Z,-0.96
2018-01-15T01:01:13.441Z,1.58
2018-01-15T01:02:18.656Z,1.44
2018-01-15T01:03:23.470Z,1.02
2018-01-15T01:04:28.243Z,1.41
2018-01-15T01:05:32.959Z,1.40
2018-01-15T01:06:37.661Z,1.46
2018-01-15T01:07:42.287Z,1.23
2018-01-15T01:08:47.406Z,1.06
2018-01-15T01:09:52.178Z,1.27
2018-01-15T01:10:56.927Z,1.75
2018-01-15T01:12:01.649Z,1.64
2018-01-15T01:13:06.364Z,1.63
2018-01-15T01:14:11.121Z,1.67
2018-01-15T01:15:16.271Z,1.59
2018-01-15T01:16:21.156Z,-0.23
2018-01-15T01:17:25.867Z,1.66
2018-01-15T01:18:30.667Z,1.11
2018-01-15T01:19:35.387Z,2.01
2018-01-15T01:20:40.208Z,-1.45
2018-01-15T01:21:45.391Z,1.81
2018-01-15T01:22:50.193Z,1.88
2018-01-15T01:23:55.236Z,1.76
2018-01-15T01:24:59.950Z,2.17
2018-01-15T01:26:04.651Z,1.79
2018-01-15T01:27:09.343Z,1.80
2018-01-15T01:28:13.960Z,1.83
2018-01-15T01:29:18.540Z,2.08
2018-01-15T01:30:23.165Z,2.09
2018-01-15T01:31:27.635Z,1.00
2018-01-15T01:32:32.130Z,1.33
2018-01-15T01:33:39.002Z,1.83
2018-01-15T01:34:43.715Z,1.96
2018-01-15T01:35:48.385Z,0.48
2018-01-15T01:36:52.968Z,1.67
2018-01-15T01:37:57.681Z,2.08
2018-01-15T01:39:02.370Z,2.51
2018-01-15T01:40:07.373Z,2.52
2018-01-15T01:41:12.108Z,1.84
2018-01-15T01:42:16.888Z,2.05
2018-01-15T01:43:21.621Z,1.95
2018-01-15T01:44:26.348Z,2.41
2018-01-15T01:45:31.000Z,2.60
2018-01-15T01:46:35.898Z,0.92
2018-01-15T01:47:40.454Z,1.93
2018-01-15T01:48:45.151Z,1.03
2018-01-15T01:49:49.671Z,-1.03
2018-01-15T01:50:54.301Z,2.21
2018-01-15T01:51:59.090Z,1.90
2018-01-15T01:53:04.200Z,0.36
2018-01-15T01:54:09.137Z,0.46
2018-01-15T01:55:13.839Z,1.95
2018-01-15T01:56:18.576Z,2.13
2018-01-15T01:57:23.291Z,2.35
2018-01-15T01:58:28.012Z,1.86
2018-01-15T01:59:33.118Z,0.29
2018-01-15T02:00:37.780Z,2.32
2018-01-15T02:01:42.461Z,2.75
2018-01-15T02:02:47.389Z,2.64
2018-01-15T02:03:52.101Z,2.79
2018-01-15T02:04:56.872Z,2.84
2018-01-15T02:06:02.039Z,1.75
2018-01-15T02:07:06.784Z,1.03
2018-01-15T02:08:11.485Z,0.56
2018-01-15T02:09:16.189Z,2.41
2018-01-15T02:10:20.861Z,2.62
2018-01-15T02:11:25.570Z,2.74
2018-01-15T02:12:30.665Z,2.99
2018-01-15T02:13:35.410Z,2.90
2018-01-15T02:14:40.186Z,3.00
2018-01-15T02:15:45.049Z,2.93
2018-01-15T02:16:49.762Z,3.14
2018-01-15T02:17:54.460Z,2.56
2018-01-15T02:18:59.776Z,2.52
2018-01-15T02:20:04.487Z,2.93
2018-01-15T02:21:09.211Z,3.11
2018-01-15T02:22:13.918Z,2.82
2018-01-15T02:23:18.725Z,3.17
2018-01-15T02:24:23.425Z,2.46
2018-01-15T02:25:28.585Z,2.76
2018-01-15T02:26:33.469Z,3.17
2018-01-15T02:27:38.219Z,1.96
2018-01-15T02:28:42.935Z,2.47
2018-01-15T02:29:47.624Z,1.97
2018-01-15T02:30:52.557Z,2.66
2018-01-15T02:31:57.721Z,2.34
2018-01-15T02:33:02.557Z,2.11
2018-01-15T02:34:07.151Z,2.57
2018-01-15T02:35:11.738Z,2.30
2018-01-15T02:36:16.499Z,2.69
2018-01-15T02:37:21.267Z,2.89
2018-01-15T02:38:26.442Z,1.78
2018-01-15T02:39:31.230Z,2.58
2018-01-15T02:40:35.994Z,2.40
2018-01-15T02:41:40.698Z,2.07
2018-01-15T02:42:45.413Z,2.42
2018-01-15T02:43:50.102Z,2.17
2018-01-15T02:44:55.340Z,2.15
2018-01-15T02:46:00.068Z,2.43
2018-01-15T02:47:04.809Z,0.73
2018-01-15T02:48:09.672Z,2.43
2018-01-15T02:49:14.422Z,-0.35
2018-01-15T02:50:19.286Z,2.07
2018-01-15T02:51:24.490Z,2.23
2018-01-15T02:52:29.238Z,2.55
2018-01-15T02:53:34.023Z,2.67
2018-01-15T02:54:38.781Z,2.76
2018-01-15T02:55:43.491Z,1.94
2018-01-15T02:56:48.182Z,1.57
2018-01-15T02:57:53.262Z,1.96
2018-01-15T02:58:58.023Z,2.32
2018-01-15T03:00:02.738Z,2.43
2018-01-15T03:01:07.451Z,2.03
2018-01-15T03:02:12.251Z,2.24
2018-01-15T03:03:16.963Z,2.54
2018-01-15T03:04:22.162Z,2.68
2018-01-15T03:05:26.934Z,2.81
2018-01-15T03:06:31.652Z,2.64
2018-01-15T03:07:36.408Z,2.36
2018-01-15T03:08:41.158Z,2.61
2018-01-15T03:09:45.882Z,2.44
2018-01-15T03:10:51.069Z,2.71
2018-01-15T03:11:55.807Z,2.49
2018-01-15T03:13:00.514Z,2.01
2018-01-15T03:14:05.218Z,2.37
2018-01-15T03:15:09.974Z,2.50
2018-01-15T03:16:14.710Z,2.63
2018-01-15T03:17:20.136Z,0.26
2018-01-15T03:18:24.949Z,2.52
2018-01-15T03:19:29.772Z,2.72
2018-01-15T03:20:34.551Z,2.78
2018-01-15T03:21:39.255Z,2.72
2018-01-15T03:22:43.856Z,2.79
2018-01-15T03:23:48.851Z,2.40
2018-01-15T03:24:53.414Z,2.66
2018-01-15T03:25:58.122Z,2.92
2018-01-15T03:27:02.834Z,3.02
2018-01-15T03:28:07.560Z,2.38
2018-01-15T03:29:12.302Z,2.81
2018-01-15T03:30:17.523Z,3.01
2018-01-15T03:31:22.320Z,3.05
2018-01-15T03:32:27.011Z,2.98
2018-01-15T03:33:31.678Z,3.06
2018-01-15T03:34:36.369Z,1.30
2018-01-15T03:35:41.027Z,3.11
2018-01-15T03:36:46.236Z,3.19
2018-01-15T03:37:51.041Z,3.04
2018-01-15T03:38:55.701Z,3.16
2018-01-15T03:40:00.436Z,-0.47
2018-01-15T03:41:05.066Z,2.72
2018-01-15T03:42:09.761Z,3.01
2018-01-15T03:43:14.843Z,2.78
2018-01-15T03:44:19.459Z,3.24
2018-01-15T03:45:24.163Z,3.07
2018-01-15T03:46:28.667Z,2.81
2018-01-15T03:47:33.145Z,3.11
2018-01-15T03:48:37.714Z,1.88
2018-01-15T03:49:42.736Z,3.11
2018-01-15T03:50:47.409Z,3.08
2018-01-15T03:51:52.102Z,3.14
2018-01-15T03:52:56.733Z,3.00
2018-01-15T03:54:01.386Z,3.24
2018-01-15T03:55:06.006Z,2.49
2018-01-15T03:56:11.077Z,0.81
2018-01-15T03:57:15.729Z,3.00
2018-01-15T03:58:20.490Z,3.17
2018-01-15T03:59:25.173Z,1.58
2018-01-15T04:00:29.844Z,3.05
2018-01-15T04:01:34.485Z,3.14
2018-01-15T04:02:39.158Z,3.34
2018-01-15T04:03:43.789Z,3.25
2018-01-15T04:04:48.507Z,3.20
2018-01-15T04:05:53.186Z,3.06
2018-01-15T04:06:57.899Z,3.40
2018-01-15T04:08:02.674Z,3.18
2018-01-15T04:09:07.458Z,3.21
2018-01-15T04:10:12.499Z,2.87
2018-01-15T04:11:17.271Z,3.50
2018-01-15T04:12:22.114Z,3.43
2018-01-15T04:13:27.247Z,3.49
2018-01-15T04:14:31.971Z,3.31
2018-01-15T04:15:36.536Z,3.48
2018-01-15T04:16:41.463Z,3.44
2018-01-15T04:17:46.025Z,3.36
2018-01-15T04:18:50.763Z,1.68
2018-01-15T04:19:55.935Z,3.38
2018-01-15T04:21:00.581Z,3.08
2018-01-15T04:22:05.257Z,2.98
2018-01-15T04:23:09.971Z,3.22
2018-01-15T04:24:14.703Z,3.08
2018-01-15T04:25:19.405Z,3.35
2018-01-15T04:26:24.613Z,3.51
2018-01-15T04:27:29.355Z,3.23
2018-01-15T04:28:34.157Z,3.37
2018-01-15T04:29:38.988Z,3.00
2018-01-15T04:30:43.730Z,2.75
2018-01-15T04:31:48.482Z,2.94
2018-01-15T04:32:53.557Z,3.19
2018-01-15T04:33:58.337Z,3.38
2018-01-15T04:35:03.111Z,3.42
2018-01-15T04:36:08.048Z,1.68
2018-01-15T04:37:12.872Z,2.62
2018-01-15T04:38:17.648Z,3.70
2018-01-15T04:39:22.819Z,3.29
2018-01-15T04:40:27.624Z,3.43
2018-01-15T04:41:32.383Z,3.30
2018-01-15T04:42:37.165Z,3.40
2018-01-15T04:43:41.910Z,2.09
2018-01-15T04:44:46.609Z,1.95
2018-01-15T04:45:51.812Z,2.66
2018-01-15T04:46:56.587Z,2.94
2018-01-15T04:48:01.312Z,3.13
2018-01-15T04:49:06.041Z,3.29
2018-01-15T04:50:10.797Z,2.83
2018-01-15T04:51:15.500Z,3.28
2018-01-15T04:52:20.956Z,3.27
2018-01-15T04:53:26.445Z,2.53
2018-01-15T04:54:31.088Z,3.70
2018-01-15T04:55:35.723Z,3.68
2018-01-15T04:56:40.375Z,2.71
2018-01-15T04:57:45.012Z,3.34
2018-01-15T04:58:50.365Z,3.16
2018-01-15T04:59:55.129Z,3.24
2018-01-15T05:00:59.918Z,2.89
2018-01-15T05:02:04.634Z,3.36
2018-01-15T05:03:09.355Z,2.40
2018-01-15T05:04:14.107Z,2.95
2018-01-15T05:05:19.330Z,2.27
2018-01-15T05:06:24.052Z,3.17
2018-01-15T05:07:28.830Z,3.63
2018-01-15T05:08:33.581Z,3.82
2018-01-15T05:09:38.329Z,3.57
2018-01-15T05:10:43.103Z,3.71
2018-01-15T05:11:48.427Z,3.56
2018-01-15T05:12:53.145Z,3.76
2018-01-15T05:13:57.885Z,3.83
2018-01-15T05:15:02.635Z,3.64
2018-01-15T05:16:07.453Z,3.70
2018-01-15T05:17:12.161Z,3.49
2018-01-15T05:18:17.230Z,3.67
2018-01-15T05:19:21.876Z,3.71
2018-01-15T05:20:26.610Z,3.75
2018-01-15T05:21:31.274Z,3.86
2018-01-15T05:22:35.914Z,3.91
2018-01-15T05:23:40.700Z,2.02
2018-01-15T05:24:45.713Z,3.86
2018-01-15T05:25:50.454Z,1.60
2018-01-15T05:26:55.097Z,3.46
2018-01-15T05:27:59.723Z,3.61
2018-01-15T05:29:04.315Z,3.68
2018-01-15T05:30:08.856Z,3.70
2018-01-15T05:31:13.950Z,3.68
2018-01-15T05:32:18.600Z,2.89
2018-01-15T05:33:23.197Z,2.78
2018-01-15T05:34:27.916Z,3.25
2018-01-15T05:35:33.096Z,3.48
2018-01-15T05:36:37.974Z,3.55
2018-01-15T05:37:43.082Z,3.12
2018-01-15T05:38:47.743Z,3.56
2018-01-15T05:39:52.434Z,3.58
2018-01-15T05:40:57.080Z,3.66
2018-01-15T05:42:01.758Z,3.72
2018-01-15T05:43:06.438Z,3.85
2018-01-15T05:44:11.613Z,3.41
2018-01-15T05:45:16.308Z,3.30
2018-01-15T05:46:21.060Z,3.29
2018-01-15T05:47:25.821Z,0.72
2018-01-15T05:48:31.525Z,3.26
2018-01-15T05:49:36.307Z,2.45
2018-01-15T05:50:41.322Z,3.16
2018-01-15T05:51:46.046Z,3.42
2018-01-15T05:52:50.815Z,3.53
2018-01-15T05:53:55.579Z,3.73
2018-01-15T05:55:00.364Z,3.61
2018-01-15T05:56:05.135Z,2.86
2018-01-15T05:57:10.305Z,3.22
2018-01-15T05:58:15.015Z,3.59
2018-01-15T05:59:19.737Z,3.44
2018-01-15T06:00:24.424Z,3.44
2018-01-15T06:01:29.108Z,3.57
2018-01-15T06:02:33.711Z,3.69
2018-01-15T06:03:38.954Z,3.88
2018-01-15T06:04:43.614Z,3.04
2018-01-15T06:05:48.405Z,-0.32
2018-01-15T06:06:53.095Z,3.74
2018-01-15T06:07:57.774Z,3.85
2018-01-15T06:09:02.437Z,3.56
2018-01-15T06:10:07.401Z,2.44
2018-01-15T06:11:12.280Z,2.22
2018-01-15T06:12:17.056Z,3.25
2018-01-15T06:13:21.777Z,2.75
2018-01-15T06:14:26.556Z,2.87
2018-01-15T06:15:31.371Z,3.18
2018-01-15T06:16:36.868Z,2.07
2018-01-15T06:17:41.679Z,0.39
2018-01-15T06:18:46.497Z,3.21
2018-01-15T06:19:51.283Z,3.35
2018-01-15T06:20:56.075Z,2.52
2018-01-15T06:22:00.853Z,2.95
2018-01-15T06:23:06.256Z,3.11
2018-01-15T06:24:11.025Z,3.16
2018-01-15T06:25:15.810Z,3.21
2018-01-15T06:26:20.591Z,3.13
2018-01-15T06:27:25.430Z,3.24
2018-01-15T06:28:30.221Z,3.37
2018-01-15T06:29:38.757Z,3.61
2018-01-15T06:30:43.519Z,3.71
2018-01-15T06:31:48.315Z,3.67
2018-01-15T06:32:53.125Z,3.78
2018-01-15T06:33:57.864Z,3.71
2018-01-15T06:35:02.569Z,3.69
2018-01-15T06:36:07.243Z,3.11
2018-01-15T06:37:11.965Z,3.62
2018-01-15T06:38:16.685Z,3.73
2018-01-15T06:39:21.394Z,3.59
2018-01-15T06:40:26.145Z,3.14
2018-01-15T06:41:31.274Z,3.06
2018-01-15T06:42:35.967Z,3.36
2018-01-15T06:43:40.679Z,3.11
2018-01-15T06:44:45.454Z,3.00
2018-01-15T06:45:50.263Z,2.77
2018-01-15T06:46:55.039Z,2.95
2018-01-15T06:48:00.306Z,3.02
2018-01-15T06:49:05.326Z,2.60
2018-01-15T06:50:10.134Z,2.86
2018-01-15T06:51:14.997Z,2.94
2018-01-15T06:52:19.745Z,2.22
2018-01-15T06:53:24.520Z,1.59
2018-01-15T06:54:29.464Z,3.18
2018-01-15T06:55:34.089Z,0.66
2018-01-15T06:56:38.784Z,2.29
2018-01-15T06:57:43.475Z,2.79
2018-01-15T06:58:48.157Z,3.08
2018-01-15T06:59:52.820Z,2.87
2018-01-15T07:00:57.846Z,3.13
2018-01-15T07:02:02.603Z,3.34
2018-01-15T07:03:07.314Z,2.47
2018-01-15T07:04:12.067Z,0.50
2018-01-15T07:05:16.811Z,3.54
2018-01-15T07:06:21.610Z,3.74
2018-01-15T07:07:26.872Z,3.42
2018-01-15T07:08:31.673Z,3.24
2018-01-15T07:09:36.461Z,3.15
2018-01-15T07:10:41.308Z,3.44
2018-01-15T07:11:46.075Z,3.54
2018-01-15T07:12:51.000Z,3.50
2018-01-15T07:13:56.119Z,3.27
2018-01-15T07:15:01.073Z,3.42
2018-01-15T07:16:05.703Z,3.26
2018-01-15T07:17:10.324Z,3.23
2018-01-15T07:18:15.692Z,2.81
2018-01-15T07:19:20.414Z,1.14
2018-01-15T07:20:25.495Z,3.42
2018-01-15T07:21:30.906Z,3.38
2018-01-15T07:22:35.634Z,3.24
2018-01-15T07:23:40.253Z,3.09
2018-01-15T07:24:44.900Z,3.54
2018-01-15T07:25:49.656Z,3.17
2018-01-15T07:26:54.857Z,1.97
2018-01-15T07:27:59.666Z,3.80
2018-01-15T07:29:04.531Z,-0.58
2018-01-15T07:30:09.464Z,3.32
2018-01-15T07:31:14.314Z,2.96
2018-01-15T07:32:19.110Z,3.03
2018-01-15T07:33:24.265Z,2.28
2018-01-15T07:34:29.373Z,2.24
2018-01-15T07:35:34.192Z,0.47
2018-01-15T07:36:38.930Z,2.94
2018-01-15T07:37:43.947Z,3.03
2018-01-15T07:38:48.649Z,3.32
2018-01-15T07:39:53.746Z,2.82
2018-01-15T07:40:58.465Z,3.11
2018-01-15T07:42:03.410Z,3.43
2018-01-15T07:43:08.136Z,3.58
2018-01-15T07:44:12.765Z,3.30
2018-01-15T07:45:17.536Z,3.06
2018-01-15T07:46:22.661Z,3.19
2018-01-15T07:47:27.381Z,3.23
2018-01-15T07:48:32.094Z,3.52
2018-01-15T07:49:36.762Z,3.28
2018-01-15T07:50:41.546Z,3.53
2018-01-15T07:51:46.217Z,3.51
2018-01-15T07:52:51.318Z,3.68
2018-01-15T07:53:55.990Z,1.64
2018-01-15T07:55:00.673Z,3.64
2018-01-15T07:56:05.348Z,3.27
2018-01-15T07:57:09.980Z,3.63
2018-01-15T07:58:14.705Z,0.51
2018-01-15T07:59:19.756Z,2.90
2018-01-15T08:00:24.605Z,3.53
2018-01-15T08:01:29.322Z,3.39
2018-01-15T08:02:33.988Z,3.41
2018-01-15T08:03:38.661Z,2.57
2018-01-15T08:04:43.568Z,3.59
2018-01-15T08:05:48.705Z,3.60
2018-01-15T08:06:53.383Z,3.71
2018-01-15T08:07:58.121Z,3.73
2018-01-15T08:09:03.433Z,3.82
2018-01-15T08:10:08.214Z,3.53
2018-01-15T08:11:12.882Z,2.44
2018-01-15T08:12:18.258Z,3.91
2018-01-15T08:13:23.078Z,3.46
2018-01-15T08:14:27.990Z,3.48
2018-01-15T08:15:32.766Z,3.21
2018-01-15T08:16:37.545Z,3.53
2018-01-15T08:17:41.685Z,2.48
2018-01-15T08:18:47.306Z,3.27
2018-01-15T08:19:51.918Z,3.55
2018-01-15T08:20:57.863Z,2.48
2018-01-15T08:22:02.758Z,3.80
2018-01-15T08:23:07.517Z,3.79
2018-01-15T08:24:12.407Z,3.83
2018-01-15T08:25:17.598Z,3.36
2018-01-15T08:26:22.342Z,3.53
2018-01-15T08:27:27.083Z,3.89
2018-01-15T08:28:31.675Z,3.63
2018-01-15T08:29:36.241Z,3.42
2018-01-15T08:30:40.820Z,3.51
2018-01-15T08:31:45.931Z,3.59
2018-01-15T08:32:50.885Z,3.48
2018-01-15T08:33:55.660Z,3.47
2018-01-15T08:35:00.388Z,3.60
2018-01-15T08:36:05.227Z,3.41
2018-01-15T08:37:09.860Z,3.71
2018-01-15T08:38:14.915Z,3.67
2018-01-15T08:39:19.598Z,3.31
2018-01-15T08:40:24.220Z,3.84
2018-01-15T08:41:28.920Z,3.47
2018-01-15T08:42:33.814Z,2.93
2018-01-15T08:43:38.463Z,2.31
2018-01-15T08:44:43.574Z,3.96
2018-01-15T08:45:48.247Z,3.96
2018-01-15T08:46:52.927Z,4.02
2018-01-15T08:47:57.633Z,-1.40
2018-01-15T08:49:02.309Z,2.42
2018-01-15T08:50:07.066Z,1.92
2018-01-15T08:51:12.097Z,2.23
2018-01-15T08:52:16.738Z,3.82
2018-01-15T08:53:21.368Z,3.93
2018-01-15T08:54:26.108Z,2.67
2018-01-15T08:55:30.763Z,3.84
2018-01-15T08:56:35.493Z,4.11
2018-01-15T08:57:40.606Z,2.71
2018-01-15T08:58:45.317Z,4.23
2018-01-15T08:59:50.251Z,3.86
2018-01-15T09:00:55.072Z,4.00
2018-01-15T09:01:59.888Z,4.41
2018-01-15T09:03:04.654Z,4.04
2018-01-15T09:04:10.020Z,4.18
2018-01-15T09:05:14.878Z,4.04
2018-01-15T09:06:19.715Z,4.10
2018-01-15T09:07:24.470Z,2.63
2018-01-15T09:08:29.229Z,3.64
2018-01-15T09:09:33.915Z,4.46
2018-01-15T09:10:38.939Z,4.19
2018-01-15T09:11:43.608Z,3.23
2018-01-15T09:12:48.396Z,3.89
2018-01-15T09:13:53.035Z,4.28
2018-01-15T09:14:57.697Z,4.51
2018-01-15T09:16:02.473Z,4.21
2018-01-15T09:17:08.230Z,3.35
2018-01-15T09:18:12.902Z,4.69
2018-01-15T09:19:17.467Z,4.90
2018-01-15T09:20:22.143Z,2.45
2018-01-15T09:21:26.655Z,1.21
2018-01-15T09:22:31.748Z,2.49
2018-01-15T09:23:36.593Z,4.86
2018-01-15T09:24:41.273Z,4.73
2018-01-15T09:25:46.440Z,4.77
2018-01-15T09:26:51.072Z,3.73
2018-01-15T09:27:55.769Z,5.19
2018-01-15T09:29:00.785Z,5.18
2018-01-15T09:30:05.694Z,4.73
2018-01-15T09:31:10.953Z,5.05
2018-01-15T09:32:15.645Z,4.65
2018-01-15T09:33:20.417Z,4.62
2018-01-15T09:34:25.084Z,5.12
2018-01-15T09:35:30.179Z,5.07
2018-01-15T09:36:34.931Z,5.56
2018-01-15T09:37:39.614Z,4.69
2018-01-15T09:38:44.372Z,3.67
2018-01-15T09:39:49.148Z,5.26
2018-01-15T09:40:54.009Z,5.13
2018-01-15T09:42:00.196Z,5.12
2018-01-15T09:43:04.961Z,4.57
2018-01-15T09:44:09.717Z,5.05
2018-01-15T09:45:14.549Z,5.53
2018-01-15T09:46:19.368Z,3.68
2018-01-15T09:47:24.204Z,4.86
2018-01-15T09:48:29.330Z,4.98
2018-01-15T09:49:34.090Z,5.07
2018-01-15T09:50:38.963Z,4.80
2018-01-15T09:51:43.782Z,4.78
2018-01-15T09:52:48.645Z,4.67
2018-01-15T09:53:53.491Z,4.74
2018-01-15T09:54:58.736Z,4.77
2018-01-15T09:56:03.590Z,4.92
2018-01-15T09:57:08.334Z,5.21
2018-01-15T09:58:13.090Z,5.54
2018-01-15T09:59:17.839Z,5.28
2018-01-15T10:00:22.550Z,2.55
2018-01-15T10:01:27.744Z,5.30
2018-01-15T10:02:32.455Z,3.27
2018-01-15T10:03:37.162Z,4.82
2018-01-15T10:04:41.918Z,3.72
2018-01-15T10:05:46.577Z,4.91
2018-01-15T10:06:51.350Z,4.89
2018-01-15T10:07:56.380Z,3.36
2018-01-15T10:09:01.084Z,4.66
2018-01-15T10:10:05.819Z,4.89
2018-01-15T10:11:10.488Z,5.53
2018-01-15T10:12:15.214Z,5.74
2018-01-15T10:13:19.966Z,5.73
2018-01-15T10:14:25.149Z,6.06
2018-01-15T10:15:29.902Z,5.88
2018-01-15T10:16:34.738Z,6.06
2018-01-15T10:17:39.418Z,6.04
2018-01-15T10:18:44.120Z,6.04
2018-01-15T10:19:48.860Z,5.69
2018-01-15T10:20:54.073Z,5.64
2018-01-15T10:21:58.984Z,5.52
2018-01-15T10:23:03.807Z,5.89
2018-01-15T10:24:08.638Z,5.74
2018-01-15T10:25:13.399Z,4.59
2018-01-15T10:26:18.650Z,5.08
2018-01-15T10:27:23.338Z,4.90
2018-01-15T10:28:27.931Z,5.78
2018-01-15T10:29:33.762Z,5.60
2018-01-15T10:30:38.675Z,12.03
2018-01-15T10:31:43.399Z,13.89
2018-01-15T10:32:48.896Z,15.00
2018-01-15T10:33:53.603Z,15.35
2018-01-15T10:34:58.391Z,15.44
2018-01-15T10:36:03.108Z,16.39
2018-01-15T10:37:07.916Z,16.72
2018-01-15T10:38:12.655Z,16.89
2018-01-15T10:39:17.933Z,17.07
2018-01-15T10:40:22.644Z,17.27
2018-01-15T10:41:27.563Z,17.33
2018-01-15T10:42:32.396Z,17.35
2018-01-15T10:43:37.303Z,17.39
2018-01-15T10:44:42.224Z,17.38
2018-01-15T10:45:47.462Z,16.05
2018-01-15T10:46:52.247Z,17.42
2018-01-15T10:47:57.119Z,17.43
2018-01-15T10:49:02.190Z,17.47
2018-01-15T10:50:07.328Z,17.46
2018-01-15T10:51:12.094Z,17.46
2018-01-15T10:52:17.284Z,17.54
2018-01-15T10:53:22.106Z,15.90
2018-01-15T10:54:26.848Z,17.51
2018-01-15T10:55:31.642Z,17.54
2018-01-15T10:56:36.453Z,17.13
2018-01-15T10:57:41.717Z,16.95
2018-01-15T10:58:46.943Z,17.45
2018-01-15T10:59:51.677Z,17.09
2018-01-15T11:00:56.592Z,17.54
2018-01-15T11:02:01.336Z,17.54
2018-01-15T11:03:06.407Z,17.50
2018-01-15T11:04:11.118Z,17.47
2018-01-15T11:05:16.219Z,17.55
2018-01-15T11:06:20.927Z,15.68
2018-01-15T11:07:25.649Z,16.13
2018-01-15T11:08:30.660Z,17.45
2018-01-15T11:09:36.348Z,17.60
2018-01-15T11:10:41.085Z,17.18
2018-01-15T11:11:46.093Z,17.52
2018-01-15T11:12:50.878Z,17.12
2018-01-15T11:13:55.693Z,16.65
2018-01-15T11:15:00.580Z,17.57
2018-01-15T11:16:05.567Z,17.56
2018-01-15T11:17:10.389Z,16.64
2018-01-15T11:18:17.203Z,16.31
2018-01-15T11:19:22.072Z,17.67
2018-01-15T11:20:27.189Z,17.63
2018-01-15T11:21:31.919Z,17.60
2018-01-15T11:22:37.432Z,17.61
2018-01-15T11:23:42.227Z,17.64
2018-01-15T11:24:47.375Z,17.40
2018-01-15T11:25:52.278Z,17.41
2018-01-15T11:26:57.221Z,17.63
2018-01-15T11:28:01.983Z,17.60
2018-01-15T11:29:06.857Z,17.68
2018-01-15T11:30:11.728Z,17.56
2018-01-15T11:31:19.066Z,17.66
2018-01-15T11:32:23.994Z,16.34
2018-01-15T11:33:28.848Z,17.63
2018-01-15T11:34:33.837Z,17.30
2018-01-15T11:35:39.747Z,17.68
2018-01-15T11:36:45.709Z,16.70
2018-01-15T11:37:50.865Z,17.63
2018-01-15T11:38:56.661Z,17.66
2018-01-15T11:40:02.653Z,17.65
2018-01-15T11:41:08.551Z,17.73
2018-01-15T11:43:36.429Z,15.76
2018-01-15T11:44:41.191Z,17.69
2018-01-15T11:45:46.084Z,17.69
2018-01-15T11:46:51.020Z,17.68
2018-01-15T11:47:56.014Z,17.31
2018-01-15T11:49:01.730Z,16.73
2018-01-15T11:50:07.239Z,16.68
2018-01-15T11:51:12.179Z,16.94
2018-01-15T11:52:17.084Z,17.74
2018-01-15T11:53:23.897Z,17.52
2018-01-15T11:54:28.758Z,17.07
2018-01-15T11:55:33.680Z,17.28
2018-01-15T11:56:39.422Z,17.55
2018-01-15T11:57:45.074Z,17.31
2018-01-15T11:58:49.965Z,17.75
2018-01-15T11:59:57.219Z,17.56
2018-01-15T12:01:03.311Z,17.78
2018-01-15T12:02:09.946Z,17.83
2018-01-15T12:03:14.850Z,17.81
2018-01-15T12:04:19.866Z,17.80
2018-01-15T12:05:24.706Z,17.77
2018-01-15T12:07:51.063Z,17.64
2018-01-15T12:08:56.033Z,17.70
2018-01-15T12:10:01.324Z,17.56
2018-01-15T12:12:29.018Z,17.30
2018-01-15T12:13:33.826Z,17.73
2018-01-15T12:14:38.758Z,17.75
2018-01-15T12:15:43.522Z,16.73
2018-01-15T12:16:48.430Z,17.60
2018-01-15T12:17:53.118Z,17.74
2018-01-15T12:18:58.256Z,15.77
2018-01-15T12:21:25.036Z,17.77
2018-01-15T12:22:31.670Z,17.74
2018-01-15T12:23:36.605Z,17.67
2018-01-15T12:24:41.459Z,17.65
2018-01-15T12:25:46.247Z,17.73
2018-01-15T12:26:51.138Z,17.69
2018-01-15T12:27:56.359Z,17.70
2018-01-15T12:29:01.817Z,17.68
2018-01-15T12:30:06.525Z,17.58
2018-01-15T12:31:12.619Z,17.73
2018-01-15T12:32:17.562Z,17.68
2018-01-15T12:33:22.540Z,17.77
2018-01-15T12:34:27.795Z,15.87
2018-01-15T12:35:32.653Z,17.66
2018-01-15T12:36:38.314Z,17.64
2018-01-15T12:37:43.151Z,17.50
2018-01-15T12:38:48.016Z,17.68
2018-01-15T12:39:52.846Z,16.14
2018-01-15T12:40:58.182Z,17.67
2018-01-15T12:42:03.111Z,17.75
2018-01-15T12:43:08.003Z,17.77
2018-01-15T12:44:12.907Z,16.99
2018-01-15T12:45:17.820Z,17.10
2018-01-15T12:46:22.599Z,17.63
2018-01-15T12:47:27.897Z,17.71
2018-01-15T12:48:32.723Z,17.67
2018-01-15T12:49:37.490Z,17.69
2018-01-15T12:50:42.315Z,17.68
2018-01-15T12:51:47.115Z,17.68
2018-01-15T12:52:52.011Z,17.70
2018-01-15T12:53:57.246Z,16.70
2018-01-15T12:55:02.081Z,17.59
2018-01-15T12:56:07.121Z,17.61
2018-01-15T12:57:11.924Z,17.63
2018-01-15T12:58:16.715Z,17.42
2018-01-15T12:59:22.775Z,17.53
2018-01-15T13:00:27.802Z,17.58
2018-01-15T13:01:32.935Z,17.63
2018-01-15T13:02:37.679Z,17.64
2018-01-15T13:03:42.464Z,17.70
2018-01-15T13:04:47.292Z,16.76
2018-01-15T13:05:52.032Z,17.78
2018-01-15T13:06:57.308Z,17.67
2018-01-15T13:08:12.101Z,17.40
2018-01-15T13:09:16.923Z,17.62
2018-01-15T13:10:22.227Z,17.11
2018-01-15T13:11:27.457Z,17.57
2018-01-15T13:12:32.408Z,17.57
2018-01-15T13:13:37.825Z,17.56
2018-01-15T13:14:42.633Z,17.57
2018-01-15T13:15:47.503Z,17.68
2018-01-15T13:16:52.299Z,17.67
2018-01-15T13:17:57.127Z,17.64
2018-01-15T13:19:02.061Z,17.32
2018-01-15T13:20:07.185Z,17.51
2018-01-15T13:21:12.177Z,17.53
2018-01-15T13:22:17.024Z,17.54
2018-01-15T13:23:21.884Z,17.56
2018-01-15T13:24:27.656Z,17.66
2018-01-15T13:25:32.475Z,17.20
2018-01-15T13:26:37.617Z,17.42
2018-01-15T13:27:42.460Z,17.61
2018-01-15T13:28:47.239Z,17.49
2018-01-15T13:29:52.038Z,17.30
2018-01-15T13:30:56.834Z,17.51
2018-01-15T13:32:01.649Z,17.30
2018-01-15T13:33:07.001Z,17.50
2018-01-15T13:34:11.813Z,17.50
2018-01-15T13:35:16.646Z,16.02
2018-01-15T13:36:21.526Z,17.60
2018-01-15T13:37:26.375Z,17.60
2018-01-15T13:38:31.316Z,17.56
2018-01-15T13:39:36.626Z,17.45
2018-01-15T13:40:42.375Z,17.48
2018-01-15T13:41:47.226Z,17.40
2018-01-15T13:42:52.068Z,17.46
2018-01-15T13:43:56.883Z,16.10
2018-01-15T13:45:01.743Z,17.39
2018-01-15T13:46:07.009Z,17.38
2018-01-15T13:47:11.851Z,17.30
2018-01-15T13:48:16.829Z,17.39
2018-01-15T13:49:21.673Z,17.32
2018-01-15T13:50:26.638Z,17.43
2018-01-15T13:51:32.410Z,17.38
2018-01-15T13:52:37.708Z,17.38
2018-01-15T13:53:43.604Z,17.47
2018-01-15T13:54:48.772Z,17.47
2018-01-15T13:55:53.678Z,17.49
2018-01-15T13:56:58.623Z,17.44
2018-01-15T13:58:04.385Z,17.40
2018-01-15T13:59:09.709Z,17.44
2018-01-15T14:00:14.629Z,16.72
2018-01-15T14:01:19.702Z,17.42
2018-01-15T14:02:24.936Z,17.41
2018-01-15T14:03:29.795Z,17.46
2018-01-15T14:04:34.669Z,17.51
2018-01-15T14:05:40.507Z,17.41
2018-01-15T14:06:45.434Z,17.05
2018-01-15T14:07:50.186Z,17.55
2018-01-15T14:08:55.996Z,15.52
2018-01-15T14:10:00.791Z,17.47
2018-01-15T14:11:05.631Z,17.46
2018-01-15T14:12:10.795Z,17.46
2018-01-15T14:13:15.683Z,17.49
2018-01-15T14:14:20.454Z,17.49
2018-01-15T14:15:25.281Z,17.53
2018-01-15T14:16:30.081Z,17.45
2018-01-15T14:17:34.983Z,17.48
2018-01-15T14:18:40.431Z,17.55
2018-01-15T14:19:45.146Z,17.45
2018-01-15T14:20:49.925Z,16.16